Terminal Aerodrome Forecast
Issued by NWS

Home | Current Version | Previous Version | Graphics & Text | Print | Product List | Glossary On
Versions: 1 2 3 4 5 6 7 8 9 10 11 12 13 14 15
000
FTUS45 KGGW 170500
TAFSDY
TAF
KSDY 170520Z 1706/1806 11008KT P6SM OVC024
     FM171500 12012KT P6SM OVC016
     FM171800 12012KT P6SM OVC025
     FM172100 13013KT P6SM BKN050
      AMD LTD TO CLD VIS AND WIND=

USA.gov is the U.S. government's official web portal to all federal, state and local government web resources and services.